Time;durP1;ratioP1;P1;durP2;ratioP2;P2;SDS_P1;SDS_P2;PMS_P1;PMS_P2;Temp;Humidity;BMP_temperature;BMP_pressure;BME280_temperature;BME280_humidity;BME280_pressure;Samples;Min_cycle;Max_cycle;Signal;HPM_P1;HPM_P2
2022/08/31 00:05:39;;;;;;;;;4.50;3.50;;;;;;;;5023377;28;62316;-75
2022/08/31 00:08:04;;;;;;;;;3.50;3.50;;;;;;;;5025266;28;61929;-75
2022/08/31 00:10:30;;;;;;;;;3.33;3.33;;;;;;;;5024273;28;61826;-76
2022/08/31 00:12:55;;;;;;;;;4.00;4.00;;;;;;;;5023600;28;61743;-76
2022/08/31 00:15:22;;;;;;;;;6.00;4.67;;;;;;;;5023367;28;61786;-76
2022/08/31 00:17:48;;;;;;;;;6.00;4.75;;;;;;;;5022196;28;61977;-76
2022/08/31 00:20:15;;;;;;;;;4.33;3.00;;;;;;;;5022556;28;61829;-76
2022/08/31 00:22:40;;;;;;;;;3.00;3.00;;;;;;;;5023482;28;61775;-76
2022/08/31 00:25:06;;;;;;;;;4.00;3.00;;;;;;;;5022852;28;62008;-76
2022/08/31 00:27:31;;;;;;;;;5.33;2.67;;;;;;;;5022343;28;61941;-75
2022/08/31 00:29:56;;;;;;;;;4.00;4.00;;;;;;;;5022112;28;61743;-76
2022/08/31 00:32:22;;;;;;;;;4.00;4.00;;;;;;;;5021936;28;62143;-76
2022/08/31 00:34:47;;;;;;;;;2.67;1.67;;;;;;;;5021480;28;64988;-76
2022/08/31 00:37:12;;;;;;;;;3.67;2.33;;;;;;;;5022190;28;61711;-76
2022/08/31 00:39:37;;;;;;;;;2.50;2.50;;;;;;;;5023608;28;61858;-76
2022/08/31 00:42:04;;;;;;;;;3.67;3.00;;;;;;;;5021845;28;62092;-76
2022/08/31 00:44:29;;;;;;;;;4.00;1.67;;;;;;;;5021466;28;64831;-76
2022/08/31 00:46:54;;;;;;;;;2.67;2.67;;;;;;;;5022288;28;62183;-76
2022/08/31 00:49:23;;;;;;;;;1.67;1.67;;;;;;;;5023557;28;61816;-76
2022/08/31 00:51:50;;;;;;;;;3.75;3.25;;;;;;;;5021789;28;61754;-76
2022/08/31 00:54:17;;;;;;;;;3.00;3.00;;;;;;;;5021230;28;64154;-76
2022/08/31 00:56:43;;;;;;;;;6.33;4.67;;;;;;;;5023179;28;61912;-75
2022/08/31 00:59:10;;;;;;;;;4.25;4.25;;;;;;;;5021593;28;61802;-76
2022/08/31 01:01:35;;;;;;;;;4.75;4.25;;;;;;;;5022826;28;61898;-75
2022/08/31 01:04:00;;;;;;;;;5.00;4.25;;;;;;;;5020950;28;63526;-76
2022/08/31 01:06:26;;;;;;;;;5.25;5.25;;;;;;;;5021941;28;61887;-76
2022/08/31 01:08:52;;;;;;;;;5.75;5.75;;;;;;;;5021242;28;61808;-76
2022/08/31 01:11:19;;;;;;;;;4.50;4.00;;;;;;;;5023379;28;61990;-76
2022/08/31 01:13:45;;;;;;;;;7.00;4.25;;;;;;;;5020725;28;64617;-76
2022/08/31 01:16:15;;;;;;;;;3.67;3.67;;;;;;;;5021381;28;61819;-76
2022/08/31 01:18:41;;;;;;;;;5.25;5.25;;;;;;;;5022625;28;62155;-76
2022/08/31 01:21:23;;;;;;;;;4.33;3.00;;;;;;;;5021441;28;61781;-76
2022/08/31 01:23:50;;;;;;;;;0.67;0.67;;;;;;;;5022145;28;61743;-76
2022/08/31 01:26:17;;;;;;;;;2.50;2.50;;;;;;;;5021333;28;61672;-75
2022/08/31 01:28:42;;;;;;;;;3.25;3.25;;;;;;;;5022485;28;61914;-75
2022/08/31 01:31:09;;;;;;;;;5.00;3.00;;;;;;;;5022850;28;61753;-76
2022/08/31 01:33:36;;;;;;;;;5.25;4.00;;;;;;;;5020560;28;64876;-75
2022/08/31 01:36:02;;;;;;;;;4.50;2.00;;;;;;;;5022521;28;61950;-75
2022/08/31 01:38:28;;;;;;;;;2.75;2.50;;;;;;;;5022629;28;61660;-75
2022/08/31 01:40:55;;;;;;;;;3.25;3.25;;;;;;;;5021626;28;62159;-75
2022/08/31 01:43:20;;;;;;;;;1.75;1.75;;;;;;;;5021669;28;62149;-75
2022/08/31 01:45:46;;;;;;;;;2.50;2.50;;;;;;;;5021216;28;61913;-76
2022/08/31 01:48:11;;;;;;;;;8.00;4.25;;;;;;;;5020760;28;61759;-75
2022/08/31 01:50:36;;;;;;;;;5.00;3.50;;;;;;;;5022750;28;62573;-75
2022/08/31 01:53:02;;;;;;;;;3.00;2.00;;;;;;;;5020044;28;63507;-76
2022/08/31 01:55:27;;;;;;;;;1.75;1.75;;;;;;;;5021131;28;61916;-76
2022/08/31 01:57:52;;;;;;;;;3.50;3.00;;;;;;;;5021385;28;61868;-77
2022/08/31 02:00:18;;;;;;;;;3.25;1.50;;;;;;;;5022417;28;61763;-76
2022/08/31 02:02:45;;;;;;;;;2.75;2.75;;;;;;;;5019971;28;62895;-75
2022/08/31 02:05:10;;;;;;;;;4.25;3.00;;;;;;;;5022262;28;61746;-75
2022/08/31 02:07:36;;;;;;;;;4.25;2.50;;;;;;;;5022107;28;61889;-76
2022/08/31 02:10:01;;;;;;;;;3.00;2.50;;;;;;;;5022282;28;61792;-75
2022/08/31 02:12:26;;;;;;;;;3.00;2.25;;;;;;;;5021197;28;61932;-76
2022/08/31 02:14:52;;;;;;;;;3.50;3.50;;;;;;;;5020837;28;61704;-75
2022/08/31 02:17:17;;;;;;;;;4.00;4.00;;;;;;;;5020301;28;61858;-75
2022/08/31 02:19:42;;;;;;;;;5.00;2.25;;;;;;;;5021162;28;62195;-75
2022/08/31 02:22:07;;;;;;;;;3.25;3.00;;;;;;;;5019922;28;64780;-76
2022/08/31 02:24:33;;;;;;;;;2.75;2.75;;;;;;;;5020419;28;61738;-76
2022/08/31 02:26:58;;;;;;;;;6.75;4.00;;;;;;;;5020337;28;61926;-75
2022/08/31 02:29:23;;;;;;;;;3.50;3.00;;;;;;;;5022094;28;61772;-76
2022/08/31 02:31:49;;;;;;;;;4.00;4.00;;;;;;;;5019734;28;63731;-75
2022/08/31 02:34:16;;;;;;;;;2.50;2.50;;;;;;;;5020301;28;61979;-76
2022/08/31 02:36:41;;;;;;;;;2.50;2.50;;;;;;;;5021760;28;61734;-75
2022/08/31 02:39:06;;;;;;;;;5.75;3.00;;;;;;;;5020710;28;61890;-76
2022/08/31 02:41:32;;;;;;;;;3.00;2.00;;;;;;;;5020833;28;61753;-75
2022/08/31 02:43:57;;;;;;;;;2.00;2.00;;;;;;;;5020455;28;62126;-76
2022/08/31 02:46:22;;;;;;;;;2.00;2.00;;;;;;;;5020253;28;61770;-76
2022/08/31 02:48:47;;;;;;;;;1.75;1.75;;;;;;;;5020379;28;62166;-76
2022/08/31 02:51:13;;;;;;;;;3.25;3.25;;;;;;;;5020585;28;63116;-76
2022/08/31 02:53:38;;;;;;;;;3.25;2.25;;;;;;;;5021343;28;61929;-75
2022/08/31 02:56:04;;;;;;;;;2.75;2.00;;;;;;;;5021477;28;61748;-76
2022/08/31 02:58:29;;;;;;;;;2.75;2.00;;;;;;;;5021743;28;62084;-75
2022/08/31 03:00:55;;;;;;;;;3.25;3.25;;;;;;;;5020869;28;61818;-75
2022/08/31 03:03:21;;;;;;;;;4.50;2.50;;;;;;;;5019428;28;62492;-76
2022/08/31 03:05:47;;;;;;;;;4.00;3.00;;;;;;;;5020248;28;61771;-76
2022/08/31 03:08:12;;;;;;;;;5.00;4.00;;;;;;;;5023930;28;61942;-76
2022/08/31 03:10:37;;;;;;;;;3.75;3.75;;;;;;;;5023842;28;61888;-76
2022/08/31 03:13:03;;;;;;;;;4.00;3.00;;;;;;;;5024914;28;62010;-75
2022/08/31 03:15:28;;;;;;;;;5.00;3.50;;;;;;;;5024720;28;62091;-75
2022/08/31 03:17:53;;;;;;;;;4.00;3.00;;;;;;;;5024910;28;61985;-75
2022/08/31 03:20:20;;;;;;;;;3.00;3.00;;;;;;;;5024081;28;62088;-76
2022/08/31 03:22:46;;;;;;;;;3.25;2.75;;;;;;;;5024689;28;61979;-76
2022/08/31 03:25:11;;;;;;;;;4.75;2.25;;;;;;;;5024179;28;61958;-76
2022/08/31 03:27:37;;;;;;;;;4.50;3.00;;;;;;;;5022922;28;62251;-75
2022/08/31 03:30:07;;;;;;;;;6.00;3.50;;;;;;;;5024113;28;61909;-76
2022/08/31 03:32:33;;;;;;;;;3.75;3.75;;;;;;;;5023945;28;61934;-76
2022/08/31 03:34:59;;;;;;;;;4.50;3.50;;;;;;;;5024603;28;62100;-76
2022/08/31 03:37:24;;;;;;;;;4.50;3.50;;;;;;;;5023157;28;62098;-76
2022/08/31 03:39:50;;;;;;;;;3.00;3.00;;;;;;;;5023803;28;63093;-76
2022/08/31 03:42:15;;;;;;;;;4.25;4.25;;;;;;;;5022920;28;61914;-75
2022/08/31 03:44:40;;;;;;;;;3.00;3.00;;;;;;;;5023216;28;61782;-75
2022/08/31 03:47:06;;;;;;;;;3.50;3.50;;;;;;;;5024417;28;62088;-76
2022/08/31 03:49:32;;;;;;;;;4.00;2.75;;;;;;;;5022185;28;64539;-76
2022/08/31 03:51:58;;;;;;;;;7.50;3.25;;;;;;;;5023852;28;62756;-76
2022/08/31 03:54:23;;;;;;;;;3.00;3.00;;;;;;;;5023295;28;62017;-75
2022/08/31 03:56:48;;;;;;;;;6.25;4.00;;;;;;;;5024307;28;61856;-76
2022/08/31 03:59:14;;;;;;;;;4.00;4.00;;;;;;;;5022440;28;63673;-76
2022/08/31 04:01:39;;;;;;;;;3.75;3.50;;;;;;;;5022233;28;61699;-76
2022/08/31 04:04:04;;;;;;;;;5.75;4.00;;;;;;;;5022788;28;62649;-75
2022/08/31 04:06:30;;;;;;;;;6.00;4.00;;;;;;;;5024194;28;61738;-76
2022/08/31 04:08:56;;;;;;;;;4.25;4.25;;;;;;;;5021591;28;63880;-75
2022/08/31 04:11:21;;;;;;;;;6.00;5.00;;;;;;;;5024061;28;61762;-75
2022/08/31 04:13:46;;;;;;;;;4.50;3.50;;;;;;;;5022393;28;61759;-75
2022/08/31 04:16:13;;;;;;;;;3.50;3.50;;;;;;;;5024124;28;61801;-76
2022/08/31 04:18:39;;;;;;;;;3.75;2.25;;;;;;;;5021457;28;64823;-75
2022/08/31 04:21:09;;;;;;;;;4.25;3.00;;;;;;;;5023045;28;61820;-76
2022/08/31 04:23:38;;;;;;;;;4.00;4.00;;;;;;;;5023094;28;61654;-76
2022/08/31 04:26:03;;;;;;;;;5.00;4.25;;;;;;;;5022440;28;61728;-76
2022/08/31 04:28:28;;;;;;;;;4.25;3.75;;;;;;;;5021628;28;63504;-76
2022/08/31 04:30:54;;;;;;;;;4.25;3.25;;;;;;;;5022148;28;61736;-75
2022/08/31 04:33:19;;;;;;;;;4.25;3.75;;;;;;;;5023156;28;61718;-76
2022/08/31 04:35:44;;;;;;;;;5.00;3.00;;;;;;;;5023564;28;62178;-75
2022/08/31 04:38:09;;;;;;;;;5.75;4.50;;;;;;;;5022724;28;63194;-76
2022/08/31 04:40:38;;;;;;;;;5.00;5.00;;;;;;;;5022089;28;62002;-75
2022/08/31 04:43:04;;;;;;;;;5.25;2.75;;;;;;;;5023505;28;61754;-76
2022/08/31 04:45:29;;;;;;;;;5.25;4.25;;;;;;;;5022160;28;61808;-75
2022/08/31 04:47:54;;;;;;;;;4.50;3.25;;;;;;;;5020988;28;63273;-76
2022/08/31 04:50:19;;;;;;;;;4.75;3.75;;;;;;;;5022016;28;62025;-76
2022/08/31 04:52:49;;;;;;;;;8.50;3.25;;;;;;;;5021282;28;61707;-76
2022/08/31 04:55:15;;;;;;;;;6.25;5.00;;;;;;;;5022045;28;61730;-76
2022/08/31 04:57:44;;;;;;;;;3.50;2.75;;;;;;;;5022460;28;62761;-77
2022/08/31 05:00:11;;;;;;;;;5.00;5.00;;;;;;;;5023410;28;61853;-76
2022/08/31 05:02:36;;;;;;;;;5.00;3.75;;;;;;;;5021381;28;61898;-76
2022/08/31 05:05:03;;;;;;;;;3.75;3.75;;;;;;;;5022245;28;62099;-76
2022/08/31 05:07:28;;;;;;;;;3.00;3.00;;;;;;;;5022050;28;62070;-76
2022/08/31 05:09:53;;;;;;;;;3.50;3.50;;;;;;;;5022922;28;61710;-76
2022/08/31 05:12:19;;;;;;;;;6.00;4.25;;;;;;;;5023208;28;61908;-76
2022/08/31 05:14:44;;;;;;;;;5.75;5.00;;;;;;;;5021665;28;61795;-76
2022/08/31 05:17:09;;;;;;;;;6.25;5.25;;;;;;;;5022118;28;61854;-76
2022/08/31 05:19:35;;;;;;;;;3.25;3.25;;;;;;;;5023157;28;61969;-76
2022/08/31 05:22:00;;;;;;;;;4.50;4.50;;;;;;;;5022511;28;61692;-77
2022/08/31 05:24:25;;;;;;;;;4.00;4.00;;;;;;;;5021645;28;61752;-77
2022/08/31 05:26:53;;;;;;;;;3.00;3.00;;;;;;;;5020460;28;63489;-77
2022/08/31 05:29:20;;;;;;;;;5.50;5.00;;;;;;;;5021424;28;61845;-79
2022/08/31 05:31:46;;;;;;;;;3.25;3.25;;;;;;;;5022382;28;61900;-76
2022/08/31 05:34:13;;;;;;;;;4.50;3.25;;;;;;;;5022503;28;62130;-77
2022/08/31 05:36:39;;;;;;;;;6.50;3.00;;;;;;;;5021895;28;62016;-77
2022/08/31 05:39:08;;;;;;;;;5.00;3.75;;;;;;;;5021803;28;61806;-75
2022/08/31 05:41:33;;;;;;;;;5.50;4.75;;;;;;;;5020715;28;61973;-77
2022/08/31 05:44:01;;;;;;;;;4.50;4.50;;;;;;;;5020390;28;62313;-75
2022/08/31 05:46:26;;;;;;;;;6.75;5.00;;;;;;;;5021605;28;61719;-75
2022/08/31 05:48:51;;;;;;;;;4.50;4.00;;;;;;;;5019857;28;61973;-75
2022/08/31 05:51:17;;;;;;;;;5.00;2.50;;;;;;;;5020339;28;62204;-75
2022/08/31 05:53:42;;;;;;;;;4.25;4.00;;;;;;;;5020881;28;61973;-75
2022/08/31 05:56:09;;;;;;;;;5.00;3.75;;;;;;;;5020442;28;61879;-75
2022/08/31 05:58:35;;;;;;;;;4.00;4.00;;;;;;;;5022204;28;61695;-75
2022/08/31 06:01:01;;;;;;;;;5.50;4.75;;;;;;;;5021467;28;62105;-75
2022/08/31 06:03:27;;;;;;;;;4.00;3.00;;;;;;;;5021704;28;61788;-77
2022/08/31 06:05:52;;;;;;;;;4.75;4.75;;;;;;;;5019895;28;63554;-75
2022/08/31 06:08:18;;;;;;;;;5.25;4.25;;;;;;;;5021344;28;61898;-75
2022/08/31 06:10:45;;;;;;;;;3.75;3.00;;;;;;;;5020351;28;62123;-75
2022/08/31 06:13:14;;;;;;;;;5.75;4.25;;;;;;;;5020088;28;63251;-75
2022/08/31 06:15:40;;;;;;;;;5.00;5.00;;;;;;;;5019792;28;63892;-75
2022/08/31 06:18:06;;;;;;;;;4.00;3.00;;;;;;;;5019336;28;61731;-78
2022/08/31 06:20:35;;;;;;;;;4.50;4.50;;;;;;;;5020539;28;61862;-78
2022/08/31 06:23:02;;;;;;;;;5.00;5.00;;;;;;;;5019877;28;61939;-78
2022/08/31 06:25:28;;;;;;;;;4.25;4.25;;;;;;;;5020138;28;63831;-78
2022/08/31 06:27:55;;;;;;;;;7.25;5.25;;;;;;;;5020190;28;61953;-78
2022/08/31 06:30:25;;;;;;;;;5.75;5.75;;;;;;;;5020579;28;61880;-77
2022/08/31 06:32:51;;;;;;;;;5.00;4.75;;;;;;;;5021386;28;61726;-78
2022/08/31 06:35:16;;;;;;;;;7.00;5.00;;;;;;;;5019805;28;63972;-78
2022/08/31 06:37:42;;;;;;;;;4.00;3.50;;;;;;;;5021874;28;61803;-78
2022/08/31 06:40:07;;;;;;;;;4.25;4.25;;;;;;;;5021391;28;61786;-78
2022/08/31 06:42:33;;;;;;;;;9.75;4.25;;;;;;;;5020435;28;61909;-80
2022/08/31 06:44:58;;;;;;;;;8.25;5.00;;;;;;;;5022299;28;62797;-78
2022/08/31 06:47:24;;;;;;;;;6.25;5.00;;;;;;;;5024270;28;61929;-78
2022/08/31 06:49:50;;;;;;;;;5.75;4.50;;;;;;;;5025067;28;61887;-79
2022/08/31 06:52:16;;;;;;;;;8.50;5.00;;;;;;;;5023192;28;62078;-77
2022/08/31 06:54:41;;;;;;;;;8.50;7.50;;;;;;;;5022583;28;64067;-77
2022/08/31 06:57:06;;;;;;;;;7.00;4.75;;;;;;;;5023567;28;62182;-77
2022/08/31 06:59:32;;;;;;;;;5.75;4.25;;;;;;;;5023834;28;61998;-76
2022/08/31 07:01:58;;;;;;;;;4.00;4.00;;;;;;;;5023339;28;61779;-77
2022/08/31 07:04:24;;;;;;;;;8.50;6.00;;;;;;;;5024070;28;62103;-76
2022/08/31 07:06:49;;;;;;;;;6.25;5.25;;;;;;;;5023388;28;61782;-77
2022/08/31 07:09:16;;;;;;;;;4.00;3.50;;;;;;;;5023317;28;61874;-76
2022/08/31 07:11:43;;;;;;;;;4.00;4.00;;;;;;;;5023870;28;62115;-78
2022/08/31 07:14:11;;;;;;;;;5.75;5.75;;;;;;;;5023529;28;62785;-78
2022/08/31 07:16:36;;;;;;;;;6.00;5.00;;;;;;;;5024546;28;62053;-78
2022/08/31 07:19:02;;;;;;;;;5.00;4.25;;;;;;;;5024479;28;61713;-78
2022/08/31 07:21:33;;;;;;;;;4.00;4.00;;;;;;;;5023323;28;61811;-78
2022/08/31 07:24:00;;;;;;;;;4.00;3.00;;;;;;;;5022090;28;63566;-77
2022/08/31 07:26:28;;;;;;;;;3.25;2.25;;;;;;;;5023014;28;62389;-77
2022/08/31 07:28:54;;;;;;;;;3.75;3.75;;;;;;;;5023438;28;62124;-75
2022/08/31 07:31:21;;;;;;;;;7.00;6.00;;;;;;;;5005998;28;61989;-77
2022/08/31 07:33:51;;;;;;;;;4.25;3.75;;;;;;;;5002528;28;63662;-76
2022/08/31 07:36:16;;;;;;;;;4.25;4.25;;;;;;;;5004502;28;61849;-77
2022/08/31 07:44:11;;;;;;;;;4.00;3.25;;;;;;;;5019202;28;61795;-76
2022/08/31 07:46:37;;;;;;;;;6.75;5.00;;;;;;;;5020639;28;61800;-76
2022/08/31 07:49:02;;;;;;;;;8.00;5.50;;;;;;;;5016937;28;62042;-76
2022/08/31 07:51:28;;;;;;;;;5.75;5.75;;;;;;;;5022941;28;61878;-76
2022/08/31 07:53:53;;;;;;;;;7.00;4.00;;;;;;;;5019552;28;63246;-79
2022/08/31 07:56:19;;;;;;;;;4.75;4.00;;;;;;;;5015146;28;61828;-77
2022/08/31 07:58:48;;;;;;;;;3.75;3.75;;;;;;;;5021585;28;62127;-76
2022/08/31 08:01:14;;;;;;;;;3.50;3.50;;;;;;;;5020548;28;61804;-77
2022/08/31 08:03:43;;;;;;;;;8.75;7.75;;;;;;;;5022985;28;61736;-76
2022/08/31 08:06:14;;;;;;;;;5.75;5.75;;;;;;;;5022966;28;61960;-77
2022/08/31 08:08:41;;;;;;;;;5.25;5.25;;;;;;;;5020688;28;61956;-76
2022/08/31 08:11:07;;;;;;;;;8.00;8.00;;;;;;;;5022677;28;62098;-76
2022/08/31 08:13:32;;;;;;;;;5.25;5.25;;;;;;;;5021080;28;61842;-76
2022/08/31 08:15:57;;;;;;;;;5.75;4.25;;;;;;;;5022150;28;61891;-76
2022/08/31 08:18:23;;;;;;;;;6.25;5.25;;;;;;;;5020544;28;61894;-76
2022/08/31 08:20:48;;;;;;;;;4.50;4.50;;;;;;;;5021159;28;62105;-75
2022/08/31 08:23:14;;;;;;;;;6.25;4.75;;;;;;;;5020043;28;63384;-75
2022/08/31 08:25:41;;;;;;;;;9.25;6.50;;;;;;;;5019784;28;61930;-75
2022/08/31 08:28:06;;;;;;;;;6.00;5.25;;;;;;;;5019163;28;61900;-76
2022/08/31 08:30:32;;;;;;;;;6.00;5.00;;;;;;;;5019297;28;61770;-75
2022/08/31 08:33:00;;;;;;;;;11.75;6.25;;;;;;;;5019808;28;62256;-76
2022/08/31 08:35:30;;;;;;;;;6.75;6.00;;;;;;;;5023209;28;62032;-76
2022/08/31 08:37:56;;;;;;;;;7.00;5.50;;;;;;;;5021386;28;61897;-76
2022/08/31 08:40:27;;;;;;;;;7.00;7.00;;;;;;;;5022032;28;62103;-76
2022/08/31 08:42:54;;;;;;;;;7.50;5.00;;;;;;;;5019261;28;64064;-76
2022/08/31 08:45:19;;;;;;;;;5.75;5.75;;;;;;;;5020359;28;61971;-76
2022/08/31 08:47:48;;;;;;;;;5.00;4.75;;;;;;;;5019816;28;61944;-76
2022/08/31 08:50:14;;;;;;;;;5.75;5.75;;;;;;;;5020444;28;62143;-76
2022/08/31 08:52:41;;;;;;;;;9.25;8.25;;;;;;;;5019342;28;63488;-76
2022/08/31 08:55:09;;;;;;;;;6.25;5.50;;;;;;;;5020174;28;61822;-76
2022/08/31 08:57:35;;;;;;;;;5.50;5.50;;;;;;;;5021152;28;62072;-76
2022/08/31 09:00:06;;;;;;;;;4.33;4.33;;;;;;;;5021748;28;62071;-78
2022/08/31 09:02:31;;;;;;;;;8.50;7.75;;;;;;;;5020366;28;61987;-78
2022/08/31 09:05:16;;;;;;;;;17.50;15.50;;;;;;;;5018995;28;61925;-77
2022/08/31 09:08:00;;;;;;;;;9.00;7.50;;;;;;;;5051681;28;62028;-78
2022/08/31 09:10:25;;;;;;;;;7.25;6.50;;;;;;;;5019073;28;62221;-77
2022/08/31 09:13:10;;;;;;;;;9.75;8.50;;;;;;;;5018310;28;63394;-77
2022/08/31 09:16:03;;;;;;;;;4.67;4.67;;;;;;;;5018473;28;62135;-78
2022/08/31 09:18:40;;;;;;;;;6.50;6.50;;;;;;;;5019282;28;62302;-78
2022/08/31 09:21:19;;;;;;;;;5.50;3.75;;;;;;;;5051285;28;61669;-78
2022/08/31 09:23:47;;;;;;;;;12.75;8.50;;;;;;;;5016274;28;64919;-78
2022/08/31 09:26:17;;;;;;;;;10.50;7.50;;;;;;;;5018896;28;61851;-77
2022/08/31 09:28:45;;;;;;;;;7.25;6.25;;;;;;;;5020225;28;61990;-77
2022/08/31 09:31:33;;;;;;;;;6.75;5.50;;;;;;;;5020310;28;61879;-77
2022/08/31 09:33:59;;;;;;;;;6.25;4.25;;;;;;;;5016382;28;62118;-78
2022/08/31 09:36:33;;;;;;;;;5.25;5.25;;;;;;;;5019145;28;62037;-78
2022/08/31 09:39:23;;;;;;;;;9.75;5.50;;;;;;;;5017831;28;62040;-78
2022/08/31 09:41:49;;;;;;;;;6.25;5.00;;;;;;;;5018289;28;61850;-78
2022/08/31 09:44:18;;;;;;;;;7.00;5.25;;;;;;;;5018071;28;64559;-77
2022/08/31 09:46:47;;;;;;;;;5.00;4.50;;;;;;;;5019763;28;61903;-78
2022/08/31 09:49:18;;;;;;;;;7.00;5.75;;;;;;;;5018556;28;61945;-78
2022/08/31 09:51:43;;;;;;;;;10.75;7.25;;;;;;;;5018523;28;61695;-78
2022/08/31 09:57:00;;;;;;;;;5.00;5.00;;;;;;;;5017235;28;61914;-76
2022/08/31 09:59:30;;;;;;;;;6.75;6.75;;;;;;;;5019934;28;61965;-75
2022/08/31 10:01:59;;;;;;;;;7.33;7.00;;;;;;;;5019961;28;62147;-75
2022/08/31 10:04:35;;;;;;;;;5.25;4.25;;;;;;;;5019063;28;63970;-75
2022/08/31 10:07:27;;;;;;;;;3.67;3.67;;;;;;;;5018323;28;62264;-75
2022/08/31 10:10:11;;;;;;;;;8.67;7.00;;;;;;;;5017135;28;61959;-75
2022/08/31 10:12:36;;;;;;;;;6.00;4.67;;;;;;;;5017776;28;61873;-75
2022/08/31 10:15:04;;;;;;;;;9.67;5.00;;;;;;;;5017782;28;63352;-75
2022/08/31 10:17:34;;;;;;;;;4.67;4.67;;;;;;;;5019646;28;61892;-75
2022/08/31 10:20:07;;;;;;;;;7.50;7.50;;;;;;;;5016210;28;61913;-75
2022/08/31 10:22:41;;;;;;;;;4.00;4.00;;;;;;;;5018463;28;61992;-76
2022/08/31 10:25:14;;;;;;;;;6.67;6.00;;;;;;;;5017055;28;62263;-75
2022/08/31 10:28:05;;;;;;;;;6.00;6.00;;;;;;;;5018563;28;61797;-79
2022/08/31 10:30:40;;;;;;;;;7.33;5.33;;;;;;;;5051532;28;61930;-76
2022/08/31 10:33:21;;;;;;;;;6.00;4.00;;;;;;;;5017018;28;62320;-77
2022/08/31 10:35:51;;;;;;;;;7.67;5.67;;;;;;;;5017779;28;61993;-77
2022/08/31 10:38:36;;;;;;;;;5.00;5.00;;;;;;;;5020057;28;61687;-78
2022/08/31 10:41:16;;;;;;;;;5.33;5.00;;;;;;;;5016314;28;61800;-75
2022/08/31 10:43:52;;;;;;;;;5.67;4.33;;;;;;;;5015974;28;62169;-75
2022/08/31 10:46:18;;;;;;;;;5.67;4.00;;;;;;;;5019764;28;64860;-75
2022/08/31 10:48:45;;;;;;;;;7.00;6.00;;;;;;;;5019546;28;62282;-76
2022/08/31 10:51:16;;;;;;;;;6.00;4.00;;;;;;;;5018745;28;62336;-76
2022/08/31 10:53:51;;;;;;;;;8.67;5.67;;;;;;;;5019758;28;62210;-75
2022/08/31 10:56:24;;;;;;;;;7.67;3.67;;;;;;;;5019678;28;63089;-76
2022/08/31 10:58:55;;;;;;;;;7.00;4.00;;;;;;;;5018755;28;61898;-76
2022/08/31 11:01:27;;;;;;;;;8.00;5.00;;;;;;;;5016659;28;62057;-76
2022/08/31 11:04:11;;;;;;;;;5.33;5.33;;;;;;;;5016145;28;62182;-75
2022/08/31 11:06:40;;;;;;;;;5.33;4.33;;;;;;;;5016217;28;63335;-76
2022/08/31 11:09:13;;;;;;;;;5.67;5.67;;;;;;;;5014180;28;61997;-75
2022/08/31 11:11:51;;;;;;;;;4.67;3.67;;;;;;;;5018944;28;61830;-75
2022/08/31 11:14:35;;;;;;;;;5.33;5.33;;;;;;;;5021390;28;61946;-76
2022/08/31 11:17:07;;;;;;;;;5.00;4.33;;;;;;;;5020579;28;61707;-76
2022/08/31 11:19:49;;;;;;;;;5.33;5.00;;;;;;;;5021422;28;61684;-75
2022/08/31 11:22:33;;;;;;;;;9.00;7.00;;;;;;;;5020960;28;61794;-77
2022/08/31 11:25:13;;;;;;;;;5.67;5.67;;;;;;;;5019560;28;61934;-75
2022/08/31 11:28:00;;;;;;;;;9.00;6.00;;;;;;;;5020692;28;62332;-75
2022/08/31 11:30:28;;;;;;;;;6.67;5.33;;;;;;;;5022864;28;62186;-75
2022/08/31 11:32:54;;;;;;;;;10.00;7.33;;;;;;;;5021829;28;62082;-76
2022/08/31 11:35:38;;;;;;;;;4.67;4.67;;;;;;;;5020835;28;61943;-75
2022/08/31 11:38:03;;;;;;;;;6.33;4.67;;;;;;;;5018901;28;61990;-76
2022/08/31 11:40:42;;;;;;;;;8.67;7.33;;;;;;;;5020164;28;62379;-76
2022/08/31 11:43:15;;;;;;;;;6.67;6.67;;;;;;;;5021174;28;61726;-76
2022/08/31 11:45:42;;;;;;;;;6.67;6.67;;;;;;;;5018982;28;61968;-78
2022/08/31 11:48:27;;;;;;;;;7.33;5.67;;;;;;;;5019173;28;63283;-78
2022/08/31 11:50:53;;;;;;;;;4.00;3.67;;;;;;;;5019653;28;61846;-75
2022/08/31 11:53:43;;;;;;;;;4.00;4.00;;;;;;;;5018760;28;61920;-76
2022/08/31 11:56:12;;;;;;;;;4.67;3.33;;;;;;;;5019674;28;61918;-74
2022/08/31 11:58:38;;;;;;;;;7.67;5.67;;;;;;;;5020194;28;61878;-74
2022/08/31 12:01:08;;;;;;;;;4.00;4.00;;;;;;;;5022018;28;61816;-76
2022/08/31 12:03:49;;;;;;;;;4.00;4.00;;;;;;;;5016415;28;62483;-74
2022/08/31 12:06:26;;;;;;;;;8.33;6.00;;;;;;;;5020275;28;61775;-76
2022/08/31 12:09:09;;;;;;;;;6.00;5.00;;;;;;;;5018125;28;62848;-76
2022/08/31 12:11:46;;;;;;;;;5.00;5.00;;;;;;;;5022392;28;61810;-74
2022/08/31 12:14:34;;;;;;;;;6.67;5.00;;;;;;;;5020534;28;62063;-74
2022/08/31 12:17:12;;;;;;;;;6.00;6.00;;;;;;;;5023078;28;61792;-74
2022/08/31 12:20:05;;;;;;;;;7.00;5.67;;;;;;;;5020744;28;64311;-73
2022/08/31 12:25:41;;;;;;;;;5.00;4.00;;;;;;;;5021089;28;62266;-74
2022/08/31 12:28:22;;;;;;;;;8.00;6.33;;;;;;;;5021744;28;62130;-74
2022/08/31 12:30:50;;;;;;;;;7.00;5.67;;;;;;;;5017512;28;64565;-74
2022/08/31 12:33:19;;;;;;;;;5.33;4.33;;;;;;;;5021794;28;62220;-74
2022/08/31 12:35:48;;;;;;;;;6.67;6.00;;;;;;;;5019403;28;62345;-74
2022/08/31 12:38:20;;;;;;;;;5.00;5.00;;;;;;;;5035389;28;62215;-73
2022/08/31 12:40:47;;;;;;;;;6.33;5.33;;;;;;;;5016831;28;63106;-74
2022/08/31 12:43:13;;;;;;;;;5.67;4.33;;;;;;;;5020891;28;61937;-74
2022/08/31 12:45:57;;;;;;;;;4.00;4.00;;;;;;;;5019468;28;62231;-74
2022/08/31 12:48:41;;;;;;;;;5.67;5.33;;;;;;;;5052454;28;61930;-75
2022/08/31 12:51:25;;;;;;;;;4.67;4.00;;;;;;;;5019658;28;64602;-79
2022/08/31 12:53:50;;;;;;;;;5.67;5.67;;;;;;;;5020355;28;62016;-81
2022/08/31 12:56:28;;;;;;;;;5.67;4.67;;;;;;;;5021954;28;62014;-78
2022/08/31 12:59:02;;;;;;;;;6.00;6.00;;;;;;;;5018516;28;62093;-74
2022/08/31 13:01:28;;;;;;;;;5.33;5.00;;;;;;;;5012780;28;63652;-74
2022/08/31 13:03:54;;;;;;;;;9.33;6.33;;;;;;;;5010940;28;62350;-74
2022/08/31 13:06:26;;;;;;;;;7.33;6.33;;;;;;;;5020587;28;62214;-74
2022/08/31 13:08:54;;;;;;;;;9.00;6.00;;;;;;;;5020065;28;61965;-74
2022/08/31 13:11:31;;;;;;;;;7.00;4.67;;;;;;;;5017391;28;65082;-74
2022/08/31 13:14:07;;;;;;;;;5.33;5.33;;;;;;;;5019142;28;61989;-75
2022/08/31 13:16:33;;;;;;;;;5.67;5.67;;;;;;;;5020587;28;62065;-74
2022/08/31 13:19:02;;;;;;;;;8.00;6.33;;;;;;;;5018984;28;61873;-75
2022/08/31 13:21:27;;;;;;;;;5.00;4.00;;;;;;;;5019912;28;62872;-74
2022/08/31 13:24:02;;;;;;;;;7.00;6.00;;;;;;;;5020023;28;61860;-74
2022/08/31 13:26:28;;;;;;;;;6.33;6.00;;;;;;;;5020078;28;62016;-73
2022/08/31 13:28:55;;;;;;;;;8.00;6.33;;;;;;;;5020412;28;61819;-74
2022/08/31 13:31:23;;;;;;;;;6.00;5.00;;;;;;;;5021425;28;61986;-75
2022/08/31 13:33:50;;;;;;;;;4.33;4.33;;;;;;;;5016905;28;62325;-75
2022/08/31 13:36:29;;;;;;;;;4.33;4.33;;;;;;;;5034780;28;61847;-74
2022/08/31 13:38:54;;;;;;;;;6.00;6.00;;;;;;;;5017995;28;62118;-74
2022/08/31 13:41:28;;;;;;;;;4.00;4.00;;;;;;;;5019455;28;63671;-75
2022/08/31 13:44:00;;;;;;;;;5.33;5.33;;;;;;;;5019053;28;61884;-75
2022/08/31 13:46:34;;;;;;;;;7.00;4.67;;;;;;;;5020436;28;61956;-76
2022/08/31 13:49:02;;;;;;;;;7.00;6.00;;;;;;;;5019231;28;61985;-75
2022/08/31 13:51:29;;;;;;;;;6.00;6.00;;;;;;;;5019387;28;63686;-75
2022/08/31 13:53:54;;;;;;;;;5.00;5.00;;;;;;;;5015099;28;62023;-75
2022/08/31 13:59:15;;;;;;;;;4.67;4.67;;;;;;;;5021865;28;61943;-75
2022/08/31 14:01:46;;;;;;;;;8.00;5.33;;;;;;;;5020532;28;62096;-74
2022/08/31 14:04:37;;;;;;;;;4.67;4.67;;;;;;;;5019218;28;61968;-78
2022/08/31 14:07:03;;;;;;;;;7.00;7.00;;;;;;;;5024783;28;61972;-74
2022/08/31 14:09:28;;;;;;;;;7.00;6.00;;;;;;;;5002501;28;61762;-75
2022/08/31 14:12:03;;;;;;;;;7.00;6.00;;;;;;;;5001583;28;61798;-77
2022/08/31 14:14:34;;;;;;;;;6.33;5.33;;;;;;;;5017338;28;62044;-75
2022/08/31 14:17:02;;;;;;;;;7.33;6.33;;;;;;;;5009824;28;63081;-74
2022/08/31 14:19:38;;;;;;;;;6.00;6.00;;;;;;;;5016627;28;62041;-74
2022/08/31 14:22:15;;;;;;;;;6.67;5.33;;;;;;;;5017888;28;62483;-76
2022/08/31 14:24:42;;;;;;;;;5.67;4.33;;;;;;;;5019098;28;61787;-80
2022/08/31 14:27:09;;;;;;;;;5.67;5.33;;;;;;;;5020979;28;61877;-80
2022/08/31 14:29:39;;;;;;;;;9.33;7.00;;;;;;;;5021897;28;61801;-78
2022/08/31 14:32:05;;;;;;;;;14.00;5.00;;;;;;;;5018473;28;62086;-80
2022/08/31 14:34:32;;;;;;;;;8.00;8.00;;;;;;;;5018428;28;61945;-82
2022/08/31 14:37:05;;;;;;;;;7.00;5.00;;;;;;;;5016843;28;61711;-82
2022/08/31 14:39:44;;;;;;;;;6.00;6.00;;;;;;;;5022471;28;61829;-81
2022/08/31 14:42:17;;;;;;;;;6.67;6.67;;;;;;;;5020615;28;61831;-83
2022/08/31 14:44:45;;;;;;;;;7.33;6.00;;;;;;;;5021694;28;61890;-82
2022/08/31 14:47:11;;;;;;;;;6.67;6.67;;;;;;;;5019651;28;62350;-81
2022/08/31 14:49:42;;;;;;;;;7.67;6.67;;;;;;;;5016798;28;61964;-77
2022/08/31 14:52:08;;;;;;;;;8.33;7.33;;;;;;;;5018477;28;64282;-78
2022/08/31 14:54:35;;;;;;;;;7.67;6.67;;;;;;;;5018507;28;62205;-77
2022/08/31 14:57:03;;;;;;;;;9.00;7.67;;;;;;;;5019393;28;61774;-78
2022/08/31 14:59:29;;;;;;;;;5.00;5.00;;;;;;;;5019833;28;61823;-77
2022/08/31 15:01:56;;;;;;;;;5.67;5.67;;;;;;;;5014674;28;61865;-75
2022/08/31 15:04:21;;;;;;;;;7.00;7.00;;;;;;;;5018792;28;62636;-83
2022/08/31 15:06:48;;;;;;;;;6.00;6.00;;;;;;;;5022773;28;62157;-78
2022/08/31 15:09:14;;;;;;;;;5.00;5.00;;;;;;;;5021226;28;61945;-77
2022/08/31 15:11:40;;;;;;;;;6.67;5.67;;;;;;;;5020109;28;64320;-77